Time;durP1;ratioP1;P1;durP2;ratioP2;P2;SDS_P1;SDS_P2;PMS_P1;PMS_P2;Temp;Humidity;BMP_temperature;BMP_pressure;BME280_temperature;BME280_humidity;BME280_pressure;Samples;Min_cycle;Max_cycle;Signal;HPM_P1;HPM_P2
2021/05/31 00:02:17;;;;;;;0.80;0.60;;;;;;;8.73;85.52;102086.91;5022743;28;20061;-80
2021/05/31 00:04:51;;;;;;;0.60;0.60;;;;;;;8.70;85.98;102077.34;5022958;28;20045;-81
2021/05/31 00:07:24;;;;;;;0.60;0.60;;;;;;;8.69;84.41;102075.69;5027457;28;20053;-81
2021/05/31 00:09:55;;;;;;;0.55;0.55;;;;;;;8.62;85.03;102072.28;5038121;28;20049;-81
2021/05/31 00:12:28;;;;;;;0.50;0.50;;;;;;;8.54;85.50;102076.13;5023925;28;20049;-81
2021/05/31 00:15:02;;;;;;;0.55;0.55;;;;;;;8.46;85.58;102066.41;5023622;28;20045;-82
2021/05/31 00:17:42;;;;;;;0.50;0.50;;;;;;;8.53;84.33;102068.22;5020218;28;20159;-81
2021/05/31 00:20:17;;;;;;;0.60;0.50;;;;;;;8.41;85.70;102062.72;5018695;28;20072;-82
2021/05/31 00:22:51;;;;;;;0.50;0.50;;;;;;;8.42;85.40;102053.53;5018919;28;20524;-81
2021/05/31 00:25:18;;;;;;;0.43;0.43;;;;;;;8.41;84.98;102058.16;5018308;28;20042;-81
2021/05/31 00:27:51;;;;;;;0.50;0.50;;;;;;;8.41;84.82;102051.88;5015842;28;20042;-81
2021/05/31 00:30:24;;;;;;;0.43;0.40;;;;;;;8.40;83.85;102053.75;5025991;28;20057;-81
2021/05/31 00:32:59;;;;;;;0.50;0.50;;;;;;;8.36;84.08;102049.03;5028226;28;20045;-81
2021/05/31 00:35:33;;;;;;;0.45;0.45;;;;;;;8.29;84.79;102041.81;5022703;28;20486;-81
2021/05/31 00:38:05;;;;;;;0.57;0.57;;;;;;;8.35;84.66;102042.78;5020754;28;20053;-81
2021/05/31 00:40:33;;;;;;;0.57;0.40;;;;;;;8.24;84.49;102043.56;5015172;28;20046;-81
2021/05/31 00:43:06;;;;;;;0.60;0.60;;;;;;;8.28;84.81;102051.00;5021023;28;20049;-81
2021/05/31 00:45:39;;;;;;;0.88;0.57;;;;;;;8.22;84.74;102041.09;5019834;28;20045;-81
2021/05/31 00:48:11;;;;;;;0.50;0.50;;;;;;;8.05;84.63;102031.94;5023892;28;20375;-81
2021/05/31 00:50:46;;;;;;;0.50;0.50;;;;;;;8.12;84.16;102038.94;5024609;28;20045;-81
2021/05/31 00:53:19;;;;;;;0.60;0.50;;;;;;;8.11;84.75;102050.00;5024082;28;20065;-81
2021/05/31 00:55:52;;;;;;;0.65;0.50;;;;;;;8.02;84.01;102041.34;5023244;28;20050;-82
2021/05/31 00:58:27;;;;;;;0.40;0.40;;;;;;;8.04;84.94;102044.69;5031388;28;20064;-81
2021/05/31 01:01:02;;;;;;;0.40;0.40;;;;;;;8.05;85.03;102050.91;5017902;28;20053;-81
2021/05/31 01:03:35;;;;;;;0.40;0.40;;;;;;;7.88;84.47;102042.59;5023454;28;20058;-81
2021/05/31 01:06:12;;;;;;;0.35;0.35;;;;;;;7.95;84.09;102048.75;5017250;28;20057;-80
2021/05/31 01:08:51;;;;;;;0.50;0.50;;;;;;;7.97;84.26;102052.91;5018494;28;20037;-81
2021/05/31 01:11:30;;;;;;;0.50;0.50;;;;;;;7.93;84.23;102056.31;5015561;28;20081;-80
2021/05/31 01:14:09;;;;;;;0.40;0.40;;;;;;;7.81;84.27;102051.63;5019954;28;20045;-81
2021/05/31 01:16:48;;;;;;;0.63;0.50;;;;;;;7.84;84.54;102047.63;5016625;28;20049;-81
2021/05/31 01:19:47;;;;;;;0.47;0.47;;;;;;;7.80;84.22;102049.13;5027483;28;20065;-81
2021/05/31 01:22:24;;;;;;;0.47;0.47;;;;;;;7.70;86.20;102046.97;5025778;28;20064;-81
2021/05/31 01:25:04;;;;;;;0.40;0.40;;;;;;;7.79;84.32;102050.22;5021762;28;20568;-80
2021/05/31 01:27:43;;;;;;;0.32;0.32;;;;;;;7.70;84.61;102052.38;5019015;28;20049;-81
2021/05/31 01:30:22;;;;;;;0.55;0.50;;;;;;;7.65;85.47;102058.50;5021630;28;20052;-82
2021/05/31 01:32:56;;;;;;;0.57;0.50;;;;;;;7.62;84.72;102056.25;5025374;28;20060;-81
2021/05/31 01:35:33;;;;;;;0.50;0.50;;;;;;;7.60;84.79;102058.34;5019525;28;20053;-81
2021/05/31 01:38:06;;;;;;;0.40;0.40;;;;;;;7.63;84.71;102060.59;5026279;28;20054;-81
2021/05/31 01:40:46;;;;;;;0.40;0.40;;;;;;;7.58;85.57;102057.75;5019997;28;20038;-81
2021/05/31 01:43:20;;;;;;;0.40;0.40;;;;;;;7.55;85.20;102049.25;5015125;28;20053;-81
2021/05/31 01:45:55;;;;;;;0.40;0.40;;;;;;;7.55;85.15;102050.06;5021395;28;20046;-81
2021/05/31 01:48:29;;;;;;;0.47;0.47;;;;;;;7.51;85.26;102046.13;5026450;28;20049;-81
2021/05/31 01:51:03;;;;;;;0.40;0.40;;;;;;;7.51;85.35;102059.69;5018559;28;20049;-80
2021/05/31 01:53:36;;;;;;;0.43;0.40;;;;;;;7.41;85.26;102053.97;5023328;28;20060;-81
2021/05/31 01:56:10;;;;;;;0.40;0.40;;;;;;;7.47;84.18;102047.63;5019880;28;20057;-81
2021/05/31 01:58:42;;;;;;;0.57;0.40;;;;;;;7.43;84.66;102043.72;5014298;28;20053;-81
2021/05/31 02:01:12;;;;;;;0.50;0.50;;;;;;;7.39;84.98;102047.94;5022564;28;20042;-82
2021/05/31 02:03:45;;;;;;;0.30;0.30;;;;;;;7.37;84.32;102048.16;5015364;28;20042;-80
2021/05/31 02:06:13;;;;;;;0.40;0.40;;;;;;;7.24;84.45;102023.97;5036653;28;20502;-81
2021/05/31 02:08:46;;;;;;;0.40;0.40;;;;;;;7.33;84.73;102044.25;5021585;28;20057;-81
2021/05/31 02:11:25;;;;;;;0.40;0.40;;;;;;;7.28;85.38;102042.22;5019461;28;20054;-81
2021/05/31 02:14:03;;;;;;;0.30;0.30;;;;;;;7.23;85.45;102033.94;5031081;28;20049;-81
2021/05/31 02:16:42;;;;;;;0.40;0.40;;;;;;;7.21;85.04;102044.19;5019296;28;20052;-81
2021/05/31 02:19:18;;;;;;;0.35;0.35;;;;;;;7.23;85.43;102027.72;5015532;28;20060;-81
2021/05/31 02:21:52;;;;;;;0.40;0.40;;;;;;;7.22;84.54;102026.88;5019372;28;20057;-81
2021/05/31 02:24:31;;;;;;;0.45;0.43;;;;;;;7.24;84.81;102029.38;5026171;28;20052;-81
2021/05/31 02:27:05;;;;;;;0.30;0.30;;;;;;;7.26;84.50;102029.97;5025177;28;20050;-81
2021/05/31 02:29:38;;;;;;;0.47;0.47;;;;;;;7.06;84.84;102020.16;5021741;28;20050;-81
2021/05/31 02:32:21;;;;;;;0.40;0.40;;;;;;;7.11;84.87;102038.44;5017486;28;20038;-81
2021/05/31 02:34:54;;;;;;;0.40;0.40;;;;;;;7.08;84.77;102028.06;5018762;28;20065;-81
2021/05/31 02:37:34;;;;;;;0.65;0.47;;;;;;;7.09;84.83;102032.44;5027619;28;20056;-82
2021/05/31 02:40:03;;;;;;;0.30;0.30;;;;;;;6.99;85.12;102024.81;5022965;28;20466;-82
2021/05/31 02:42:40;;;;;;;0.45;0.45;;;;;;;6.96;84.98;102027.94;5025434;28;20510;-82
2021/05/31 02:45:14;;;;;;;0.40;0.40;;;;;;;6.75;84.89;101999.41;5024479;28;20050;-81
2021/05/31 02:47:49;;;;;;;0.30;0.30;;;;;;;6.88;85.11;102026.38;5024137;28;20045;-81
2021/05/31 02:50:22;;;;;;;0.40;0.40;;;;;;;6.89;84.67;102021.78;5021640;28;20042;-81
2021/05/31 02:52:50;;;;;;;0.40;0.40;;;;;;;6.84;85.28;102030.56;5025938;28;20072;-81
2021/05/31 02:55:26;;;;;;;0.77;0.32;;;;;;;6.77;84.74;102021.69;5024131;28;20395;-81
2021/05/31 02:57:54;;;;;;;0.40;0.40;;;;;;;6.79;85.49;102030.41;5026447;28;20506;-81
2021/05/31 03:00:23;;;;;;;0.30;0.30;;;;;;;6.78;85.87;102034.13;5028617;28;20057;-81
2021/05/31 03:02:58;;;;;;;0.50;0.50;;;;;;;6.77;86.09;102029.81;5021279;28;20486;-81
2021/05/31 03:05:32;;;;;;;0.40;0.40;;;;;;;6.81;86.01;102031.84;5030779;28;20052;-81
2021/05/31 03:08:05;;;;;;;0.30;0.30;;;;;;;6.85;85.77;102034.09;5020582;28;20048;-81
2021/05/31 03:10:38;;;;;;;0.30;0.30;;;;;;;6.85;84.98;102020.56;5013315;28;20049;-81
2021/05/31 03:13:12;;;;;;;0.40;0.40;;;;;;;6.92;84.64;102035.69;5015653;28;20493;-81
2021/05/31 03:15:46;;;;;;;0.47;0.40;;;;;;;6.86;84.99;102035.75;5016575;28;20049;-80
2021/05/31 03:18:21;;;;;;;0.40;0.40;;;;;;;6.81;84.88;102026.41;5019678;28;20068;-81
2021/05/31 03:20:54;;;;;;;0.40;0.40;;;;;;;6.86;85.77;102033.88;5017500;28;20394;-82
2021/05/31 03:23:21;;;;;;;0.20;0.20;;;;;;;6.93;85.31;102031.94;5025627;28;20061;-80
2021/05/31 03:25:49;;;;;;;;;;;;;;;6.83;84.97;102028.09;5026118;28;20061;-81
2021/05/31 03:28:21;;;;;;;0.40;0.40;;;;;;;6.85;85.39;102031.38;5015942;28;19926;-81
2021/05/31 03:30:54;;;;;;;0.40;0.40;;;;;;;6.93;84.58;102029.25;5017559;28;20422;-80
2021/05/31 03:33:28;;;;;;;0.30;0.30;;;;;;;6.92;83.92;102024.06;5020038;28;20049;-80
2021/05/31 03:36:07;;;;;;;0.50;0.50;;;;;;;6.97;84.64;102037.72;5016373;28;20034;-81
2021/05/31 03:38:40;;;;;;;0.43;0.40;;;;;;;6.94;84.73;102024.66;5015644;28;20395;-80
2021/05/31 03:41:12;;;;;;;0.40;0.40;;;;;;;7.01;85.15;102027.28;5028996;28;20383;-80
2021/05/31 03:43:45;;;;;;;0.40;0.40;;;;;;;7.07;84.43;102037.22;5013823;28;20509;-80
2021/05/31 03:46:18;;;;;;;0.40;0.40;;;;;;;7.08;84.32;102041.59;5018000;28;20057;-81
2021/05/31 03:48:52;;;;;;;0.30;0.30;;;;;;;7.11;84.69;102033.03;5013411;28;20050;-80
2021/05/31 03:51:25;;;;;;;0.95;0.50;;;;;;;7.15;84.91;102028.81;5020245;28;20060;-80
2021/05/31 03:53:58;;;;;;;0.30;0.30;;;;;;;7.19;84.33;102040.03;5021868;28;20076;-82
2021/05/31 03:56:34;;;;;;;0.30;0.30;;;;;;;7.22;85.61;102035.00;5019217;28;20056;-83
2021/05/31 03:59:07;;;;;;;0.40;0.40;;;;;;;7.21;85.45;102035.22;5019260;28;20478;-82
2021/05/31 04:01:40;;;;;;;1.55;0.38;;;;;;;7.29;84.51;102030.34;5025703;28;20045;-83
2021/05/31 04:04:14;;;;;;;0.30;0.30;;;;;;;7.42;83.76;102036.69;5022004;28;20538;-81
2021/05/31 04:06:59;;;;;;;0.30;0.30;;;;;;;7.35;84.77;102030.47;5013514;28;20041;-82
2021/05/31 04:12:23;;;;;;;0.32;0.32;;;;;;;7.41;85.33;102033.13;5015578;28;20053;-81
2021/05/31 04:14:55;;;;;;;0.30;0.30;;;;;;;7.39;84.35;102028.97;5026666;28;20478;-82
2021/05/31 04:17:28;;;;;;;0.45;0.45;;;;;;;7.38;85.55;102030.06;5023155;28;20053;-81
2021/05/31 04:20:03;;;;;;;0.40;0.40;;;;;;;7.37;86.28;102028.38;5021366;28;20049;-81
2021/05/31 04:22:36;;;;;;;0.57;0.32;;;;;;;7.56;85.46;102040.88;5013885;28;20065;-82
2021/05/31 04:25:10;;;;;;;0.30;0.30;;;;;;;7.51;85.22;102029.88;5023303;28;20073;-82
2021/05/31 04:27:43;;;;;;;0.30;0.30;;;;;;;7.56;85.48;102031.94;5013029;28;20049;-82
2021/05/31 04:30:17;;;;;;;0.30;0.30;;;;;;;7.60;85.56;102031.25;5021601;28;20057;-80
2021/05/31 04:32:50;;;;;;;0.52;0.30;;;;;;;7.64;85.74;102031.63;5020004;28;20053;-81
2021/05/31 04:35:24;;;;;;;0.40;0.40;;;;;;;7.75;85.87;102030.03;5013376;28;20449;-81
2021/05/31 04:37:57;;;;;;;0.22;0.22;;;;;;;7.79;84.92;102018.50;5023199;28;20129;-81
2021/05/31 04:40:30;;;;;;;0.30;0.30;;;;;;;7.89;85.08;102026.09;5020436;28;20058;-81
2021/05/31 04:43:03;;;;;;;0.20;0.20;;;;;;;7.93;84.61;102027.28;5019927;28;20056;-81
2021/05/31 04:45:31;;;;;;;0.40;0.40;;;;;;;7.99;85.10;102028.25;5022652;28;20065;-81
2021/05/31 04:48:05;;;;;;;0.40;0.40;;;;;;;8.02;84.91;102025.09;5019255;28;20041;-81
2021/05/31 04:50:39;;;;;;;0.30;0.30;;;;;;;8.16;84.43;102028.44;5015305;28;20053;-81
2021/05/31 04:53:13;;;;;;;0.30;0.30;;;;;;;8.27;84.32;102026.81;5023598;28;20045;-81
2021/05/31 04:55:45;;;;;;;0.20;0.20;;;;;;;8.35;84.02;102029.22;5015511;28;20522;-81
2021/05/31 04:58:18;;;;;;;0.28;0.20;;;;;;;8.30;83.41;102018.22;5025466;28;20049;-80
2021/05/31 05:00:49;;;;;;;0.30;0.30;;;;;;;8.71;79.65;102021.19;5016586;28;20054;-81
2021/05/31 05:03:22;;;;;;;0.30;0.30;;;;;;;9.24;76.84;102027.56;5025865;28;20053;-81
2021/05/31 05:05:56;;;;;;;0.20;0.20;;;;;;;9.45;76.31;102024.22;5023999;28;20490;-81
2021/05/31 05:08:24;;;;;;;0.40;0.40;;;;;;;11.25;72.00;102026.56;5035704;28;20045;-81
2021/05/31 05:10:52;;;;;;;;;;;;;;;12.87;67.34;102018.75;5020628;28;20049;-81
2021/05/31 05:13:24;;;;;;;0.40;0.40;;;;;;;13.95;64.57;102013.81;5028478;28;19932;-81
2021/05/31 05:15:57;;;;;;;0.30;0.30;;;;;;;14.97;62.60;102016.91;5018649;28;20050;-81
2021/05/31 05:18:30;;;;;;;0.30;0.30;;;;;;;15.97;61.22;102006.13;5016336;28;20042;-81
2021/05/31 05:21:04;;;;;;;0.30;0.30;;;;;;;16.47;57.51;102001.38;5015903;28;20068;-81
2021/05/31 05:23:37;;;;;;;0.40;0.40;;;;;;;16.75;58.22;102004.44;5020603;28;20057;-81
2021/05/31 05:26:10;;;;;;;0.20;0.20;;;;;;;17.06;55.77;102008.81;5021068;28;20049;-83
2021/05/31 05:28:43;;;;;;;0.32;0.32;;;;;;;17.31;49.39;102004.97;5015020;28;20034;-82
2021/05/31 05:31:16;;;;;;;0.30;0.30;;;;;;;17.37;47.92;102002.97;5019559;28;20050;-81
2021/05/31 05:33:49;;;;;;;0.30;0.30;;;;;;;17.25;48.20;102003.38;5026860;28;20046;-81
2021/05/31 05:36:28;;;;;;;0.30;0.30;;;;;;;17.17;47.35;101999.34;5020367;28;20050;-82
2021/05/31 05:42:13;;;;;;;0.20;0.20;;;;;;;15.73;55.66;101997.69;5000861;28;20069;-81
2021/05/31 05:45:10;;;;;;;0.20;0.20;;;;;;;14.92;53.57;102001.28;5018137;28;20052;-82
2021/05/31 05:47:46;;;;;;;0.20;0.20;;;;;;;14.39;56.40;102003.47;5022242;28;20362;-81
2021/05/31 05:50:21;;;;;;;0.20;0.20;;;;;;;14.61;60.83;102014.16;5018959;28;20061;-81
2021/05/31 05:52:55;;;;;;;0.10;0.10;;;;;;;14.54;58.12;102016.34;5019717;28;20495;-81
2021/05/31 05:55:28;;;;;;;0.20;0.20;;;;;;;14.29;55.47;102013.34;5023809;28;20046;-81
2021/05/31 05:58:01;;;;;;;0.20;0.20;;;;;;;13.57;55.95;102015.88;5025480;28;20041;-82
2021/05/31 06:00:34;;;;;;;0.20;0.20;;;;;;;13.50;55.75;102015.31;5018206;28;20037;-80
2021/05/31 06:03:07;;;;;;;0.20;0.20;;;;;;;13.02;64.92;102020.78;5025659;28;20060;-81
2021/05/31 06:05:39;;;;;;;0.20;0.20;;;;;;;12.84;61.03;102000.16;5015044;28;20046;-81
2021/05/31 06:08:13;;;;;;;0.20;0.20;;;;;;;12.85;61.35;102014.63;5019642;28;20481;-82
2021/05/31 06:10:46;;;;;;;0.20;0.20;;;;;;;12.97;59.83;102014.44;5022407;28;20057;-81
2021/05/31 06:13:19;;;;;;;0.20;0.20;;;;;;;12.44;63.17;101996.00;5028128;28;20473;-80
2021/05/31 06:15:53;;;;;;;0.10;0.10;;;;;;;12.53;61.20;102002.66;5017258;28;20513;-81
2021/05/31 06:18:22;;;;;;;0.17;0.17;;;;;;;12.72;60.15;102002.25;5023703;28;20041;-82
2021/05/31 06:20:49;;;;;;;0.30;0.30;;;;;;;12.75;61.90;102008.00;5019016;28;20053;-81
2021/05/31 06:23:24;;;;;;;0.20;0.20;;;;;;;12.67;61.86;102003.03;5020862;28;20647;-81
2021/05/31 06:25:57;;;;;;;0.20;0.20;;;;;;;12.21;64.49;102002.66;5016692;28;20041;-82
2021/05/31 06:28:24;;;;;;;;;;;;;;;12.40;63.00;101997.63;5016822;28;20050;-82
2021/05/31 06:30:58;;;;;;;0.10;0.10;;;;;;;12.56;66.25;102007.56;5017068;28;19922;-81
2021/05/31 06:33:31;;;;;;;0.20;0.20;;;;;;;12.82;61.19;101998.78;5020820;28;20049;-82
2021/05/31 06:36:09;;;;;;;0.20;0.20;;;;;;;12.49;63.82;101996.06;5013827;28;20049;-81
2021/05/31 06:38:43;;;;;;;0.30;0.30;;;;;;;12.98;56.11;102002.41;5015670;28;20390;-82
2021/05/31 06:41:16;;;;;;;0.20;0.20;;;;;;;12.88;62.38;102005.91;5026856;28;20080;-81
2021/05/31 06:43:48;;;;;;;0.20;0.20;;;;;;;13.08;55.20;102005.22;5016328;28;20045;-82
2021/05/31 06:46:17;;;;;;;0.20;0.20;;;;;;;13.14;59.67;102000.63;5024896;28;20053;-82
2021/05/31 06:48:49;;;;;;;0.20;0.20;;;;;;;13.01;56.35;102005.47;5024393;28;20045;-82
2021/05/31 06:51:17;;;;;;;;;;;;;;;12.96;54.91;102013.63;5009967;28;20076;-82
2021/05/31 06:53:51;;;;;;;0.20;0.20;;;;;;;12.89;59.79;102004.84;5008227;28;19925;-83
2021/05/31 06:56:21;;;;;;;0.20;0.20;;;;;;;12.84;53.05;101986.50;5007142;28;20066;-81
2021/05/31 06:58:54;;;;;;;0.22;0.22;;;;;;;13.12;57.15;102005.50;4995422;28;20060;-81
2021/05/31 07:01:27;;;;;;;0.20;0.20;;;;;;;13.32;55.88;102000.16;4997511;28;20722;-83
2021/05/31 07:04:00;;;;;;;0.20;0.20;;;;;;;13.55;49.08;102004.41;5004780;28;20065;-82
2021/05/31 07:06:33;;;;;;;0.70;0.20;;;;;;;13.40;57.29;101988.75;4991764;28;20056;-82
2021/05/31 07:09:08;;;;;;;0.20;0.20;;;;;;;13.52;56.50;102001.34;4998707;28;20497;-82
2021/05/31 07:11:37;;;;;;;0.20;0.20;;;;;;;13.48;59.28;101998.34;4999883;28;20520;-81
2021/05/31 07:14:12;;;;;;;0.20;0.20;;;;;;;13.64;54.59;102012.09;5000258;28;20064;-81
2021/05/31 07:16:45;;;;;;;0.20;0.20;;;;;;;13.80;49.55;102000.09;4995823;28;20398;-81
2021/05/31 07:19:18;;;;;;;0.17;0.17;;;;;;;13.87;52.10;102003.41;5004070;28;20053;-80
2021/05/31 07:21:50;;;;;;;0.10;0.10;;;;;;;14.05;51.33;102004.00;5004932;28;20057;-80
2021/05/31 07:24:25;;;;;;;0.10;0.10;;;;;;;14.08;53.34;102008.91;4999165;28;20061;-81
2021/05/31 07:26:58;;;;;;;0.00;0.00;;;;;;;14.17;52.44;101998.25;4998847;28;20053;-81
2021/05/31 07:29:31;;;;;;;0.00;0.00;;;;;;;14.02;48.96;101997.13;4997384;28;20053;-84
2021/05/31 07:32:06;;;;;;;0.20;0.20;;;;;;;14.13;48.15;101992.50;5001691;28;20042;-80
2021/05/31 07:34:34;;;;;;;0.17;0.17;;;;;;;14.10;47.18;101995.81;5004824;28;20720;-83
2021/05/31 07:37:07;;;;;;;0.20;0.20;;;;;;;14.18;51.23;101994.44;4996642;28;20054;-82
2021/05/31 07:39:41;;;;;;;0.20;0.20;;;;;;;14.27;49.24;101992.81;4999889;28;20049;-83
2021/05/31 07:42:14;;;;;;;0.17;0.17;;;;;;;14.46;50.31;101987.59;4999536;28;20068;-83
2021/05/31 07:44:46;;;;;;;0.20;0.20;;;;;;;14.37;47.65;101990.06;5000788;28;20054;-83
2021/05/31 07:47:19;;;;;;;0.20;0.20;;;;;;;14.27;47.29;101990.06;4995399;28;20672;-83
2021/05/31 07:49:52;;;;;;;0.20;0.20;;;;;;;14.39;47.58;101989.78;4995411;28;20061;-83
2021/05/31 07:52:20;;;;;;;0.20;0.20;;;;;;;14.49;43.85;101992.53;4963192;28;20052;-83
2021/05/31 07:54:54;;;;;;;0.10;0.10;;;;;;;14.58;44.43;101987.31;4995352;28;20050;-83
2021/05/31 07:57:27;;;;;;;0.20;0.20;;;;;;;14.76;47.79;101989.53;5001913;28;20053;-82
2021/05/31 08:00:00;;;;;;;0.20;0.20;;;;;;;14.92;42.71;101981.28;5002002;28;21687;-83
2021/05/31 08:02:43;;;;;;;0.20;0.20;;;;;;;14.98;47.78;101974.69;4997763;28;20545;-83
2021/05/31 08:05:17;;;;;;;0.20;0.20;;;;;;;15.09;47.41;101981.78;4999906;28;20058;-84
2021/05/31 08:07:50;;;;;;;0.20;0.20;;;;;;;15.21;49.94;101980.66;4998178;28;20398;-84
2021/05/31 08:10:25;;;;;;;0.20;0.20;;;;;;;15.02;46.11;101978.50;4999076;28;20057;-84
2021/05/31 08:12:58;;;;;;;0.13;0.13;;;;;;;15.34;44.49;101974.56;4999437;28;20430;-83
2021/05/31 08:15:31;;;;;;;0.10;0.10;;;;;;;15.17;43.08;101974.09;4995091;28;20053;-82
2021/05/31 08:18:04;;;;;;;0.10;0.10;;;;;;;15.26;49.43;101980.63;4993241;28;20050;-83
2021/05/31 08:20:34;;;;;;;0.10;0.10;;;;;;;15.34;47.35;101976.50;4996348;28;20049;-82
2021/05/31 08:23:08;;;;;;;0.20;0.20;;;;;;;15.45;45.22;101975.34;4997912;28;20056;-82
2021/05/31 08:25:43;;;;;;;0.20;0.20;;;;;;;15.75;45.97;101977.09;4997152;28;20045;-81
2021/05/31 08:28:12;;;;;;;0.20;0.20;;;;;;;15.85;48.34;101972.69;5000660;28;20052;-82
2021/05/31 08:30:42;;;;;;;0.10;0.10;;;;;;;15.85;39.48;101954.28;4996592;28;21349;-82
2021/05/31 08:33:15;;;;;;;0.20;0.20;;;;;;;15.79;41.23;101961.75;4997145;28;20062;-82
2021/05/31 08:35:48;;;;;;;0.10;0.10;;;;;;;15.90;42.67;101957.00;4996719;28;20616;-83
2021/05/31 08:38:21;;;;;;;0.20;0.20;;;;;;;15.79;44.37;101950.75;5001045;28;20045;-83
2021/05/31 08:40:56;;;;;;;0.20;0.20;;;;;;;16.01;43.75;101960.50;5006561;28;20418;-83
2021/05/31 08:43:29;;;;;;;0.20;0.20;;;;;;;15.98;42.77;101959.16;4998833;28;20065;-83
2021/05/31 08:46:02;;;;;;;0.20;0.20;;;;;;;15.86;39.61;101936.72;5005044;28;20045;-83
2021/05/31 08:48:36;;;;;;;0.20;0.20;;;;;;;16.26;42.94;101950.44;5003909;28;20053;-83
2021/05/31 08:51:11;;;;;;;0.20;0.20;;;;;;;16.55;40.84;101957.88;4971430;28;20061;-83
2021/05/31 08:53:45;;;;;;;0.20;0.20;;;;;;;16.56;42.76;101954.84;5000298;28;20060;-83
2021/05/31 08:56:19;;;;;;;0.20;0.20;;;;;;;16.61;39.09;101951.22;4997062;28;20072;-84
2021/05/31 08:58:52;;;;;;;0.20;0.20;;;;;;;16.72;42.22;101941.75;4993784;28;20045;-83
2021/05/31 09:01:26;;;;;;;0.10;0.10;;;;;;;16.74;38.70;101949.75;4999235;28;20054;-83
2021/05/31 09:04:03;;;;;;;0.17;0.17;;;;;;;16.71;42.71;101947.56;4994544;28;20048;-83
2021/05/31 09:06:36;;;;;;;0.10;0.10;;;;;;;17.01;46.89;101949.19;4994577;28;20060;-83
2021/05/31 09:09:09;;;;;;;0.20;0.20;;;;;;;17.05;40.54;101943.94;4999163;28;20078;-83
2021/05/31 09:11:53;;;;;;;0.20;0.20;;;;;;;17.11;41.81;101940.81;5002939;28;20057;-83
2021/05/31 09:14:22;;;;;;;0.20;0.20;;;;;;;17.23;46.23;101943.13;4997593;28;20064;-82
2021/05/31 09:16:55;;;;;;;0.20;0.20;;;;;;;17.19;43.23;101938.53;4997146;28;20061;-83
2021/05/31 09:19:22;;;;;;;0.20;0.20;;;;;;;17.11;41.87;101935.31;4994182;28;20127;-83
2021/05/31 09:21:56;;;;;;;0.20;0.20;;;;;;;16.92;43.05;101937.22;4998054;28;20905;-83
2021/05/31 09:24:29;;;;;;;0.20;0.20;;;;;;;17.35;46.28;101937.22;4997566;28;20045;-82
2021/05/31 09:27:06;;;;;;;0.20;0.20;;;;;;;17.40;40.12;101931.66;5001138;28;20057;-83
2021/05/31 09:29:39;;;;;;;0.20;0.20;;;;;;;17.63;44.48;101918.13;4993689;28;20056;-83
2021/05/31 09:32:12;;;;;;;0.13;0.13;;;;;;;17.64;42.70;101937.09;4993511;28;20676;-83
2021/05/31 09:34:40;;;;;;;0.20;0.20;;;;;;;17.82;44.99;101931.91;4999324;28;20053;-83
2021/05/31 09:37:13;;;;;;;0.20;0.20;;;;;;;17.88;48.95;101933.44;5003268;28;20053;-82
2021/05/31 09:39:57;;;;;;;0.20;0.20;;;;;;;18.09;49.19;101930.41;4997843;28;20057;-83
2021/05/31 09:42:33;;;;;;;0.30;0.20;;;;;;;17.97;45.89;101930.88;4997152;28;20060;-82
2021/05/31 09:45:06;;;;;;;0.10;0.10;;;;;;;17.74;44.65;101922.38;4997421;28;20054;-83
2021/05/31 09:47:38;;;;;;;0.17;0.17;;;;;;;17.84;47.26;101918.63;5000602;28;20045;-84
2021/05/31 09:50:21;;;;;;;0.10;0.10;;;;;;;18.11;44.78;101922.66;4997242;28;21233;-84
2021/05/31 09:53:06;;;;;;;0.20;0.20;;;;;;;18.06;43.36;101920.78;4977683;28;20061;-83
2021/05/31 09:55:41;;;;;;;0.20;0.20;;;;;;;18.16;44.99;101917.88;4996479;28;20058;-81
2021/05/31 09:58:17;;;;;;;0.20;0.20;;;;;;;18.26;46.15;101921.59;5002344;28;20065;-82
2021/05/31 10:00:50;;;;;;;0.20;0.20;;;;;;;18.07;44.83;101916.94;4996998;28;20061;-81
2021/05/31 10:03:32;;;;;;;0.15;0.15;;;;;;;18.19;45.65;101899.94;5007809;28;20050;-81
2021/05/31 10:06:09;;;;;;;0.20;0.20;;;;;;;18.08;41.36;101906.75;5011183;28;20053;-83
2021/05/31 10:08:44;;;;;;;0.20;0.20;;;;;;;18.33;45.44;101902.72;5001334;28;20062;-83
2021/05/31 10:11:17;;;;;;;0.22;0.20;;;;;;;18.52;45.20;101892.44;5000502;28;20494;-82
2021/05/31 10:13:52;;;;;;;0.10;0.10;;;;;;;18.61;42.34;101898.06;5000600;28;20049;-83
2021/05/31 10:16:24;;;;;;;0.10;0.10;;;;;;;18.66;46.78;101886.94;4998403;28;20065;-83
2021/05/31 10:18:58;;;;;;;0.20;0.20;;;;;;;18.69;46.09;101891.03;4995730;28;20041;-83
2021/05/31 10:21:31;;;;;;;0.15;0.15;;;;;;;18.59;42.50;101892.06;4992027;28;20052;-83
2021/05/31 10:23:59;;;;;;;0.15;0.15;;;;;;;18.77;47.33;101900.53;5007585;28;20073;-82
2021/05/31 10:26:35;;;;;;;0.20;0.20;;;;;;;18.66;42.60;101873.16;4993480;28;20527;-82
2021/05/31 10:29:09;;;;;;;0.55;0.20;;;;;;;18.65;47.25;101885.31;4993479;28;20046;-83
2021/05/31 10:31:44;;;;;;;0.20;0.20;;;;;;;18.89;45.72;101867.75;5002786;28;20795;-85
2021/05/31 10:34:23;;;;;;;0.10;0.10;;;;;;;19.07;45.96;101879.00;5006688;28;20057;-86
2021/05/31 10:36:55;;;;;;;0.20;0.20;;;;;;;19.20;46.96;101872.63;5002119;28;20080;-85
2021/05/31 10:39:25;;;;;;;0.20;0.20;;;;;;;19.33;44.02;101877.31;5008084;28;20064;-84
2021/05/31 10:42:06;;;;;;;0.80;0.20;;;;;;;19.19;41.77;101874.56;5006043;28;20058;-84
2021/05/31 10:44:41;;;;;;;0.20;0.20;;;;;;;18.99;44.20;101866.75;5008224;28;20743;-84
2021/05/31 10:47:26;;;;;;;0.10;0.10;;;;;;;19.15;44.86;101870.78;5007982;28;20054;-91
2021/05/31 10:50:01;;;;;;;0.10;0.10;;;;;;;19.29;44.91;101856.16;5002341;28;20057;-85
2021/05/31 10:52:29;;;;;;;0.20;0.20;;;;;;;19.34;45.61;101856.84;4974432;28;21491;-84
2021/05/31 10:55:09;;;;;;;0.20;0.20;;;;;;;19.24;42.26;101859.84;5004859;28;20061;-85
2021/05/31 10:57:39;;;;;;;0.20;0.20;;;;;;;19.18;44.92;101861.09;5003958;28;20422;-87
2021/05/31 11:00:24;;;;;;;0.20;0.20;;;;;;;19.38;48.02;101855.09;5002653;28;20058;-84
2021/05/31 11:03:09;;;;;;;0.20;0.20;;;;;;;19.53;43.21;101866.94;5009461;28;20050;-84
2021/05/31 11:05:39;;;;;;;0.20;0.20;;;;;;;19.26;44.52;101848.50;5007132;28;20072;-85
2021/05/31 11:08:47;;;;;;;0.20;0.20;;;;;;;19.31;44.80;101854.72;5006022;28;21578;-85
2021/05/31 11:11:28;;;;;;;0.43;0.20;;;;;;;19.38;41.56;101854.28;5001632;28;20053;-87
2021/05/31 11:14:00;;;;;;;0.20;0.20;;;;;;;19.43;45.21;101845.06;5005970;28;20050;-86
2021/05/31 11:16:36;;;;;;;0.20;0.20;;;;;;;19.70;46.64;101852.44;5010767;28;20056;-86
2021/05/31 11:19:05;;;;;;;0.25;0.20;;;;;;;19.76;45.94;101844.84;5004420;28;20773;-87
2021/05/31 11:21:37;;;;;;;0.20;0.20;;;;;;;19.71;47.41;101832.78;5001717;28;20076;-87
2021/05/31 11:24:34;;;;;;;0.20;0.20;;;;;;;19.73;41.62;101848.25;5006377;28;20057;-86
2021/05/31 11:27:13;;;;;;;0.30;0.20;;;;;;;19.78;46.97;101848.13;5009082;28;20068;-85
2021/05/31 11:29:45;;;;;;;0.10;0.10;;;;;;;20.01;48.41;101852.53;5005498;28;20064;-84
2021/05/31 11:32:31;;;;;;;0.20;0.20;;;;;;;20.18;43.84;101845.47;5001620;28;20053;-85
2021/05/31 11:34:59;;;;;;;0.17;0.17;;;;;;;20.13;42.57;101851.94;5004793;28;20057;-85
2021/05/31 11:37:46;;;;;;;0.10;0.10;;;;;;;20.06;46.56;101826.69;5003192;28;20473;-86
2021/05/31 11:40:21;;;;;;;0.20;0.20;;;;;;;20.05;44.59;101798.28;5004112;28;20065;-86
2021/05/31 11:42:58;;;;;;;0.10;0.10;;;;;;;19.93;41.28;101839.47;5001051;28;20041;-86
2021/05/31 11:45:36;;;;;;;0.10;0.10;;;;;;;19.90;45.00;101808.88;5010605;28;20080;-85
2021/05/31 11:48:13;;;;;;;0.10;0.10;;;;;;;19.93;41.90;101827.59;5003936;28;20061;-85
2021/05/31 11:50:42;;;;;;;0.13;0.13;;;;;;;20.21;42.23;101834.59;5004161;28;20049;-87
2021/05/31 11:53:17;;;;;;;0.20;0.20;;;;;;;19.94;41.32;101834.75;5001361;28;20054;-84
2021/05/31 11:55:50;;;;;;;0.10;0.10;;;;;;;19.87;45.69;101832.44;5007459;28;20054;-85
2021/05/31 11:58:25;;;;;;;0.10;0.10;;;;;;;20.01;44.78;101832.34;5004300;28;20061;-87
2021/05/31 12:00:53;;;;;;;0.10;0.10;;;;;;;20.21;41.67;101833.78;5008827;28;20053;-86
2021/05/31 12:03:25;;;;;;;0.10;0.10;;;;;;;20.25;41.06;101826.47;5011205;28;20073;-86
2021/05/31 12:05:57;;;;;;;0.20;0.20;;;;;;;20.17;46.99;101828.06;5009035;28;20054;-85
2021/05/31 12:08:31;;;;;;;0.20;0.20;;;;;;;20.35;43.62;101815.13;5011242;28;20061;-86